Time;durP1;ratioP1;P1;durP2;ratioP2;P2;SDS_P1;SDS_P2;PMS_P1;PMS_P2;Temp;Humidity;BMP_temperature;BMP_pressure;BME280_temperature;BME280_humidity;BME280_pressure;Samples;Min_cycle;Max_cycle;Signal;HPM_P1;HPM_P2
2022/03/30 00:00:48;;;;;;;27.08;14.55;;;4.20;99.90;;;;;;4843593;29;20105;-66
2022/03/30 00:03:13;;;;;;;28.58;14.98;;;4.10;99.90;;;;;;4843338;29;20053;-65
2022/03/30 00:05:39;;;;;;;25.85;14.38;;;4.10;99.90;;;;;;4859075;29;20054;-65
2022/03/30 00:08:06;;;;;;;24.63;15.45;;;4.10;99.90;;;;;;4843664;29;20144;-66
2022/03/30 00:10:32;;;;;;;28.95;14.90;;;4.10;99.90;;;;;;4864426;29;20347;-67
2022/03/30 00:12:58;;;;;;;26.38;14.80;;;4.10;99.90;;;;;;4861738;29;20359;-65
2022/03/30 00:15:24;;;;;;;25.55;14.30;;;4.10;99.90;;;;;;4851366;29;20402;-68
2022/03/30 00:17:50;;;;;;;23.00;13.90;;;4.20;99.90;;;;;;4844025;29;20436;-66
2022/03/30 00:20:17;;;;;;;26.27;13.77;;;4.20;99.90;;;;;;4860318;29;20057;-66
2022/03/30 00:22:43;;;;;;;24.35;14.05;;;4.20;99.90;;;;;;4844529;29;20098;-65
2022/03/30 00:25:10;;;;;;;29.25;15.18;;;4.20;99.90;;;;;;4854322;29;20137;-65
2022/03/30 00:27:37;;;;;;;23.45;13.88;;;4.20;99.90;;;;;;4878205;29;20502;-65
2022/03/30 00:30:05;;;;;;;26.00;14.60;;;4.20;99.90;;;;;;4859325;29;20065;-67
2022/03/30 00:32:31;;;;;;;28.42;14.65;;;4.20;99.90;;;;;;4863980;29;20061;-66
2022/03/30 00:34:56;;;;;;;29.27;14.80;;;4.30;99.90;;;;;;4842942;29;20064;-65
2022/03/30 00:37:22;;;;;;;26.48;14.75;;;4.30;99.90;;;;;;4857795;29;20057;-67
2022/03/30 00:39:48;;;;;;;29.63;16.13;;;4.30;99.90;;;;;;4847684;29;20057;-65
2022/03/30 00:42:18;;;;;;;29.45;15.15;;;4.30;99.90;;;;;;4859131;29;20057;-67
2022/03/30 00:44:46;;;;;;;24.63;14.90;;;4.30;99.90;;;;;;4858761;29;20533;-66
2022/03/30 00:47:19;;;;;;;30.50;15.63;;;4.30;99.90;;;;;;4843216;29;20444;-65
2022/03/30 00:49:45;;;;;;;25.50;14.73;;;4.30;99.90;;;;;;4842939;29;20050;-66
2022/03/30 00:52:12;;;;;;;30.35;15.23;;;4.30;99.90;;;;;;4843151;29;20562;-67
2022/03/30 00:54:41;;;;;;;31.45;14.75;;;4.30;99.90;;;;;;4860413;29;20133;-66
2022/03/30 00:57:09;;;;;;;29.95;15.45;;;4.30;99.90;;;;;;4857728;29;20052;-65
2022/03/30 00:59:35;;;;;;;27.48;14.98;;;4.20;99.90;;;;;;4881707;29;20079;-65
2022/03/30 01:02:01;;;;;;;27.40;14.43;;;4.20;99.90;;;;;;4849219;29;20115;-67
2022/03/30 01:04:27;;;;;;;24.63;14.82;;;4.20;99.90;;;;;;4846374;29;20065;-67
2022/03/30 01:06:53;;;;;;;28.80;14.75;;;4.20;99.90;;;;;;4844026;29;20496;-65
2022/03/30 01:09:18;;;;;;;29.25;15.60;;;4.20;99.90;;;;;;4858893;29;20086;-65
2022/03/30 01:11:44;;;;;;;27.08;14.40;;;4.20;99.90;;;;;;4860298;29;20597;-65
2022/03/30 01:14:12;;;;;;;25.27;14.05;;;4.10;99.90;;;;;;4854508;29;20046;-67
2022/03/30 01:16:41;;;;;;;28.20;14.38;;;4.10;99.90;;;;;;4854339;29;20432;-66
2022/03/30 01:19:08;;;;;;;30.65;15.73;;;4.10;99.90;;;;;;4860712;29;20060;-65
2022/03/30 01:21:36;;;;;;;27.52;15.15;;;4.10;99.90;;;;;;4860927;29;20064;-67
2022/03/30 01:24:01;;;;;;;27.75;14.65;;;4.10;99.90;;;;;;4861780;29;20057;-65
2022/03/30 01:26:27;;;;;;;28.90;15.07;;;4.00;99.90;;;;;;4862019;29;20379;-65
2022/03/30 01:28:53;;;;;;;27.13;14.30;;;4.00;99.90;;;;;;4845458;29;20054;-66
2022/03/30 01:34:03;;;;;;;26.40;13.57;;;3.90;99.90;;;;;;4824320;29;20095;-65
2022/03/30 01:36:29;;;;;;;26.30;15.43;;;3.80;99.90;;;;;;4834724;29;20054;-67
2022/03/30 01:38:54;;;;;;;28.92;15.40;;;3.70;99.90;;;;;;4844840;29;20061;-65
2022/03/30 01:41:20;;;;;;;27.98;15.18;;;3.70;99.90;;;;;;4859485;29;20093;-66
2022/03/30 01:43:45;;;;;;;29.88;15.52;;;3.60;99.90;;;;;;4856991;29;20119;-65
2022/03/30 01:46:11;;;;;;;28.92;14.18;;;3.60;99.90;;;;;;4843318;29;20078;-65
2022/03/30 01:48:36;;;;;;;24.98;14.75;;;3.50;99.90;;;;;;4845923;29;20058;-64
2022/03/30 01:51:02;;;;;;;27.30;14.93;;;3.50;99.90;;;;;;4860400;29;20056;-67
2022/03/30 01:53:28;;;;;;;28.90;15.15;;;3.50;99.90;;;;;;4860529;29;20045;-65
2022/03/30 01:55:53;;;;;;;31.92;16.15;;;3.50;99.90;;;;;;4860271;29;20116;-66
2022/03/30 01:58:20;;;;;;;29.27;15.95;;;3.60;99.90;;;;;;4841802;29;20065;-65
2022/03/30 02:00:46;;;;;;;25.52;15.63;;;3.60;99.90;;;;;;4857149;29;20058;-67
2022/03/30 02:03:12;;;;;;;35.42;16.60;;;3.60;99.90;;;;;;4842621;29;20415;-66
2022/03/30 02:05:39;;;;;;;33.00;15.90;;;3.70;99.90;;;;;;4849802;29;20061;-65
2022/03/30 02:08:04;;;;;;;30.55;16.15;;;3.70;99.90;;;;;;4845572;29;20121;-65
2022/03/30 02:10:31;;;;;;;26.73;15.38;;;3.80;99.90;;;;;;4851055;29;20057;-65
2022/03/30 02:12:58;;;;;;;28.23;15.38;;;3.90;99.90;;;;;;4861122;29;20084;-65
2022/03/30 02:15:24;;;;;;;31.80;16.20;;;3.90;99.90;;;;;;4846842;29;20049;-67
2022/03/30 02:17:50;;;;;;;34.50;18.08;;;3.90;99.90;;;;;;4879654;29;20064;-65
2022/03/30 02:20:15;;;;;;;35.00;17.23;;;3.90;99.90;;;;;;4863511;29;20053;-65
2022/03/30 02:22:41;;;;;;;33.45;17.38;;;4.00;99.90;;;;;;4880435;29;20075;-66
2022/03/30 02:25:08;;;;;;;30.02;16.02;;;4.00;99.90;;;;;;4863349;29;20425;-65
2022/03/30 02:27:34;;;;;;;31.48;15.65;;;4.10;99.90;;;;;;4863756;29;20070;-66
2022/03/30 02:30:00;;;;;;;31.38;16.95;;;4.10;99.90;;;;;;4844589;29;20483;-66
2022/03/30 02:32:26;;;;;;;30.55;16.48;;;4.10;99.90;;;;;;4844497;29;20054;-65
2022/03/30 02:34:52;;;;;;;29.45;16.42;;;4.10;99.90;;;;;;4844928;29;20054;-64
2022/03/30 02:37:18;;;;;;;35.90;17.67;;;4.10;99.90;;;;;;4860933;29;20155;-66
2022/03/30 02:39:43;;;;;;;37.78;18.70;;;4.10;99.90;;;;;;4860038;29;20137;-66
2022/03/30 02:42:09;;;;;;;32.63;16.45;;;4.20;99.90;;;;;;4844297;29;20058;-67
2022/03/30 02:44:36;;;;;;;34.13;17.55;;;4.20;99.90;;;;;;4859929;29;20497;-65
2022/03/30 02:47:02;;;;;;;30.08;17.52;;;4.20;99.90;;;;;;4852072;29;20061;-66
2022/03/30 02:49:28;;;;;;;34.78;17.23;;;4.20;99.90;;;;;;4860663;29;20150;-66
2022/03/30 02:51:54;;;;;;;34.33;17.35;;;4.30;99.90;;;;;;4845789;29;20538;-66
2022/03/30 02:54:19;;;;;;;32.47;18.17;;;4.30;99.90;;;;;;4854889;29;20402;-66
2022/03/30 02:56:45;;;;;;;33.30;17.52;;;4.30;99.90;;;;;;4879040;29;20136;-65
2022/03/30 02:59:11;;;;;;;29.83;15.95;;;4.30;99.90;;;;;;4879150;29;20063;-65
2022/03/30 03:01:37;;;;;;;29.90;16.80;;;4.40;99.90;;;;;;4855363;29;20130;-67
2022/03/30 03:04:03;;;;;;;29.92;16.60;;;4.40;99.90;;;;;;4862536;29;20530;-66
2022/03/30 03:06:29;;;;;;;32.53;17.40;;;4.50;99.90;;;;;;4862083;29;20158;-66
2022/03/30 03:08:55;;;;;;;34.58;17.23;;;4.50;99.90;;;;;;4879816;29;20375;-66
2022/03/30 03:11:20;;;;;;;32.58;17.23;;;4.60;99.90;;;;;;4864249;29;20113;-65
2022/03/30 03:13:46;;;;;;;32.83;17.73;;;4.60;99.90;;;;;;4862021;29;20056;-65
2022/03/30 03:16:13;;;;;;;33.67;16.38;;;4.60;99.90;;;;;;4858215;29;20057;-65
2022/03/30 03:18:39;;;;;;;29.92;15.48;;;4.50;99.90;;;;;;4852778;29;20107;-66
2022/03/30 03:21:04;;;;;;;30.15;16.52;;;4.60;99.90;;;;;;4857471;29;20478;-65
2022/03/30 03:23:30;;;;;;;38.70;17.58;;;4.60;99.90;;;;;;4859297;29;20093;-66
2022/03/30 03:25:56;;;;;;;32.50;17.30;;;4.60;99.90;;;;;;4845642;29;20534;-66
2022/03/30 03:28:21;;;;;;;36.15;17.80;;;4.60;99.90;;;;;;4861653;29;20131;-65
2022/03/30 03:30:47;;;;;;;32.05;17.83;;;4.60;99.90;;;;;;4862256;29;20109;-65
2022/03/30 03:33:13;;;;;;;34.40;17.70;;;4.70;99.90;;;;;;4862290;29;20538;-66
2022/03/30 03:35:38;;;;;;;31.63;17.52;;;4.70;99.90;;;;;;4861375;29;20112;-65
2022/03/30 03:38:05;;;;;;;31.10;16.95;;;4.70;99.90;;;;;;4876989;29;20053;-65
2022/03/30 03:40:32;;;;;;;36.17;17.83;;;4.70;99.90;;;;;;4860758;29;20106;-66
2022/03/30 03:42:59;;;;;;;31.55;16.52;;;4.80;99.90;;;;;;4860466;29;20071;-66
2022/03/30 03:45:25;;;;;;;33.10;17.80;;;4.80;99.90;;;;;;4862300;29;20053;-65
2022/03/30 03:47:51;;;;;;;32.03;16.30;;;4.80;99.90;;;;;;4849147;29;20049;-66
2022/03/30 03:50:18;;;;;;;32.72;17.02;;;4.90;99.90;;;;;;4875160;29;20067;-66
2022/03/30 03:52:43;;;;;;;31.25;16.85;;;4.80;99.90;;;;;;4877757;29;20061;-67
2022/03/30 03:55:10;;;;;;;30.40;15.80;;;4.80;99.90;;;;;;4849999;29;20402;-66
2022/03/30 03:57:38;;;;;;;29.63;15.93;;;4.80;99.90;;;;;;4873231;29;20049;-66
2022/03/30 04:00:04;;;;;;;28.63;15.40;;;4.80;99.90;;;;;;4843904;29;20053;-66
2022/03/30 04:02:30;;;;;;;31.80;16.58;;;4.80;99.90;;;;;;4843533;29;20517;-66
2022/03/30 04:04:56;;;;;;;27.70;15.30;;;4.80;99.90;;;;;;4843953;29;20137;-65
2022/03/30 04:07:21;;;;;;;29.27;15.43;;;4.80;99.90;;;;;;4845796;29;20141;-66
2022/03/30 04:09:47;;;;;;;26.70;15.07;;;4.80;99.90;;;;;;4855666;29;20057;-65
2022/03/30 04:12:12;;;;;;;31.35;15.25;;;4.80;99.90;;;;;;4861753;29;20053;-66
2022/03/30 04:14:38;;;;;;;32.20;15.23;;;4.80;99.90;;;;;;4862224;29;20513;-66
2022/03/30 04:17:04;;;;;;;31.58;16.23;;;4.80;99.90;;;;;;4852518;29;20612;-66
2022/03/30 04:19:30;;;;;;;27.52;14.40;;;4.80;99.90;;;;;;4856340;29;20068;-66
2022/03/30 04:21:55;;;;;;;33.25;15.07;;;4.80;99.90;;;;;;4856751;29;20060;-65
2022/03/30 04:24:21;;;;;;;31.27;14.25;;;4.80;99.90;;;;;;4860389;29;20058;-65
2022/03/30 04:26:46;;;;;;;32.72;14.70;;;4.80;99.90;;;;;;4843228;29;20068;-66
2022/03/30 04:29:12;;;;;;;33.17;15.05;;;4.80;99.90;;;;;;4861702;29;20409;-65
2022/03/30 04:31:38;;;;;;;28.52;14.25;;;4.80;99.90;;;;;;4846832;29;20137;-64
2022/03/30 04:34:03;;;;;;;30.85;14.63;;;4.80;99.90;;;;;;4847146;29;20057;-66
2022/03/30 04:36:29;;;;;;;31.80;14.68;;;4.80;99.90;;;;;;4864376;29;20514;-66
2022/03/30 04:38:54;;;;;;;31.55;15.02;;;4.80;99.90;;;;;;4847379;29;20049;-66
2022/03/30 04:41:20;;;;;;;26.67;13.68;;;4.80;99.90;;;;;;4847096;29;20057;-66
2022/03/30 04:43:46;;;;;;;27.40;13.80;;;4.80;99.90;;;;;;4847947;29;20089;-66
2022/03/30 04:46:13;;;;;;;26.42;13.95;;;4.90;99.90;;;;;;4846351;29;20045;-66
2022/03/30 04:48:39;;;;;;;29.40;14.70;;;4.90;99.90;;;;;;4846490;29;20057;-66
2022/03/30 04:51:05;;;;;;;27.83;14.40;;;4.90;99.90;;;;;;4866971;29;20064;-65
2022/03/30 04:53:30;;;;;;;33.20;14.48;;;4.90;99.90;;;;;;4881405;29;20554;-65
2022/03/30 04:55:56;;;;;;;27.30;14.18;;;5.00;99.90;;;;;;4864224;29;20110;-65
2022/03/30 04:58:22;;;;;;;23.90;12.82;;;5.00;99.90;;;;;;4846046;29;20491;-67
2022/03/30 05:00:48;;;;;;;27.58;13.25;;;5.00;99.90;;;;;;4838463;29;20169;-65
2022/03/30 05:03:14;;;;;;;25.25;13.70;;;5.00;99.90;;;;;;4860551;29;20180;-66
2022/03/30 05:05:39;;;;;;;30.27;15.05;;;5.00;99.90;;;;;;4841483;29;20537;-65
2022/03/30 05:08:05;;;;;;;28.00;13.05;;;5.00;99.90;;;;;;4858937;29;20060;-67
2022/03/30 05:10:31;;;;;;;30.58;14.30;;;5.00;99.90;;;;;;4855073;29;20534;-67
2022/03/30 05:12:58;;;;;;;25.73;13.55;;;5.10;99.90;;;;;;4843929;29;20062;-65
2022/03/30 05:15:24;;;;;;;32.45;14.00;;;5.10;99.90;;;;;;4858405;29;20152;-66
2022/03/30 05:17:50;;;;;;;31.85;14.57;;;5.20;99.90;;;;;;4844892;29;20153;-66
2022/03/30 05:20:17;;;;;;;26.15;14.75;;;5.20;99.90;;;;;;4844293;29;20463;-65
2022/03/30 05:22:43;;;;;;;27.23;13.75;;;5.20;99.90;;;;;;4855951;29;20581;-65
2022/03/30 05:25:10;;;;;;;24.58;12.40;;;5.20;99.90;;;;;;4844640;29;20128;-65
2022/03/30 05:27:38;;;;;;;24.73;12.73;;;5.30;99.90;;;;;;4858272;29;20417;-66
2022/03/30 05:30:04;;;;;;;20.83;11.45;;;5.30;99.90;;;;;;4844375;29;20062;-67
2022/03/30 05:32:30;;;;;;;19.65;10.63;;;5.30;99.90;;;;;;4839882;29;20054;-66
2022/03/30 05:34:56;;;;;;;20.50;10.27;;;5.30;99.90;;;;;;4842595;29;20061;-66
2022/03/30 05:37:24;;;;;;;17.60;10.20;;;5.30;99.90;;;;;;4842417;29;20050;-65
2022/03/30 05:39:50;;;;;;;11.98;7.47;;;5.30;99.90;;;;;;4839431;29;20114;-66
2022/03/30 05:42:16;;;;;;;10.93;6.40;;;5.30;99.90;;;;;;4830937;29;20090;-66
2022/03/30 05:44:42;;;;;;;9.55;4.80;;;5.30;99.90;;;;;;4839285;29;20089;-66
2022/03/30 05:47:08;;;;;;;8.15;3.80;;;5.30;99.90;;;;;;4845916;29;20110;-66
2022/03/30 05:49:35;;;;;;;7.43;3.92;;;5.40;99.90;;;;;;4860460;29;20160;-67
2022/03/30 05:52:01;;;;;;;4.65;3.70;;;5.40;99.90;;;;;;4862342;29;20061;-66
2022/03/30 05:54:27;;;;;;;5.13;3.35;;;5.40;99.90;;;;;;4861161;29;20105;-66
2022/03/30 05:57:01;;;;;;;5.22;3.22;;;5.40;99.90;;;;;;4834586;29;20054;-67
2022/03/30 05:59:32;;;;;;;5.43;3.15;;;5.50;99.90;;;;;;4842473;29;20129;-67
2022/03/30 06:01:59;;;;;;;3.20;2.85;;;5.50;99.90;;;;;;4842581;29;20098;-66
2022/03/30 06:04:24;;;;;;;3.00;2.70;;;5.50;99.90;;;;;;4843960;29;20093;-67
2022/03/30 06:06:50;;;;;;;3.08;2.60;;;5.60;99.90;;;;;;4842051;29;20057;-66
2022/03/30 06:09:17;;;;;;;2.88;2.55;;;5.60;99.90;;;;;;4842505;29;20133;-66
2022/03/30 06:11:42;;;;;;;2.63;2.33;;;5.50;99.90;;;;;;4840717;29;20062;-66
2022/03/30 06:14:08;;;;;;;4.15;2.42;;;5.60;99.90;;;;;;4843680;29;20403;-67
2022/03/30 06:16:34;;;;;;;4.30;3.10;;;5.60;99.90;;;;;;4842151;29;20530;-67
2022/03/30 06:19:00;;;;;;;4.97;3.13;;;5.50;99.90;;;;;;4842436;29;20628;-68
2022/03/30 06:21:26;;;;;;;3.20;2.67;;;5.50;99.90;;;;;;4842960;29;20144;-66
2022/03/30 06:23:51;;;;;;;3.67;2.88;;;5.50;99.90;;;;;;4843942;29;20058;-66
2022/03/30 06:26:17;;;;;;;4.20;2.72;;;5.50;99.90;;;;;;4842062;29;20072;-66
2022/03/30 06:28:43;;;;;;;2.90;2.53;;;5.50;99.90;;;;;;4854123;29;20061;-67
2022/03/30 06:31:10;;;;;;;2.65;2.45;;;5.50;99.90;;;;;;4855004;29;20057;-66
2022/03/30 06:33:36;;;;;;;3.15;2.70;;;5.60;99.90;;;;;;4861018;29;20081;-67
2022/03/30 06:36:02;;;;;;;3.15;2.33;;;5.50;99.90;;;;;;4860423;29;20057;-67
2022/03/30 06:38:27;;;;;;;4.82;2.42;;;5.60;99.90;;;;;;4848745;29;20081;-67
2022/03/30 06:40:54;;;;;;;3.03;2.35;;;5.70;99.90;;;;;;4843175;29;20137;-67
2022/03/30 06:43:19;;;;;;;2.78;2.33;;;5.70;99.90;;;;;;4840824;29;20054;-67
2022/03/30 06:45:46;;;;;;;2.97;2.50;;;5.70;99.90;;;;;;4845639;29;20054;-67
2022/03/30 06:48:12;;;;;;;3.60;2.00;;;5.80;99.90;;;;;;4848284;29;20072;-67
2022/03/30 06:50:38;;;;;;;3.70;2.20;;;5.90;99.90;;;;;;4848634;29;20503;-67
2022/03/30 06:53:05;;;;;;;2.22;1.90;;;5.90;99.90;;;;;;4842371;29;20050;-67
2022/03/30 06:55:31;;;;;;;3.40;2.40;;;6.00;99.90;;;;;;4845185;29;20050;-67
2022/03/30 06:57:57;;;;;;;1.73;1.63;;;6.00;99.90;;;;;;4845819;29;20061;-67
2022/03/30 07:00:22;;;;;;;2.72;1.70;;;6.00;99.90;;;;;;4840979;29;20559;-68
2022/03/30 07:02:48;;;;;;;1.45;1.35;;;6.10;99.90;;;;;;4840373;29;20061;-66
2022/03/30 07:05:13;;;;;;;2.15;1.73;;;6.10;99.90;;;;;;4827898;29;20427;-66
2022/03/30 07:10:23;;;;;;;2.40;2.03;;;6.20;99.90;;;;;;4848317;29;20060;-67
2022/03/30 07:12:53;;;;;;;3.38;2.47;;;6.20;99.90;;;;;;4852314;29;20053;-66
2022/03/30 07:15:20;;;;;;;3.22;2.10;;;6.20;99.90;;;;;;4850097;29;20057;-66
2022/03/30 07:17:51;;;;;;;2.92;2.22;;;6.30;99.90;;;;;;4837748;29;20062;-67
2022/03/30 07:20:18;;;;;;;4.32;2.20;;;6.30;99.90;;;;;;4857619;29;20060;-67
2022/03/30 07:22:44;;;;;;;2.42;1.95;;;6.30;99.90;;;;;;4841773;29;20503;-68
2022/03/30 07:25:11;;;;;;;2.55;1.95;;;6.40;99.90;;;;;;4840892;29;20060;-67
2022/03/30 07:27:41;;;;;;;2.28;2.08;;;6.40;99.90;;;;;;4840194;29;20053;-66
2022/03/30 07:30:09;;;;;;;2.42;2.20;;;6.50;99.90;;;;;;4841373;29;20065;-66
2022/03/30 07:32:36;;;;;;;4.05;2.20;;;6.60;99.90;;;;;;4842370;29;20054;-67
2022/03/30 07:35:02;;;;;;;2.10;1.98;;;6.70;99.90;;;;;;4842927;29;20070;-67
2022/03/30 07:37:28;;;;;;;2.03;1.83;;;6.80;99.90;;;;;;4841706;29;20550;-66
2022/03/30 07:39:53;;;;;;;1.90;1.80;;;6.90;99.90;;;;;;4842036;29;20149;-65
2022/03/30 07:42:19;;;;;;;2.00;1.80;;;6.90;99.90;;;;;;4840682;29;20046;-65
2022/03/30 07:44:45;;;;;;;2.88;2.22;;;7.00;99.90;;;;;;4841148;29;20090;-67
2022/03/30 07:47:10;;;;;;;3.92;2.20;;;7.10;99.90;;;;;;4840020;29;20496;-68
2022/03/30 07:49:36;;;;;;;2.75;2.45;;;7.10;99.90;;;;;;4841025;29;20054;-66
2022/03/30 07:52:03;;;;;;;2.92;2.40;;;7.20;99.90;;;;;;4838604;29;20053;-67
2022/03/30 07:54:29;;;;;;;3.08;2.63;;;7.20;99.90;;;;;;4837607;29;20138;-67
2022/03/30 07:56:55;;;;;;;3.35;2.30;;;7.20;99.90;;;;;;4840907;29;20089;-67
2022/03/30 07:59:20;;;;;;;5.25;2.72;;;7.20;99.90;;;;;;4837119;29;20525;-66
2022/03/30 08:01:46;;;;;;;3.17;2.53;;;7.20;99.90;;;;;;4836389;29;20106;-67
2022/03/30 08:04:12;;;;;;;3.88;2.90;;;7.30;99.90;;;;;;4825731;29;20066;-66
2022/03/30 08:06:38;;;;;;;7.30;3.67;;;7.40;99.90;;;;;;4852753;29;20211;-67
2022/03/30 08:09:04;;;;;;;5.70;3.10;;;7.40;99.90;;;;;;4870534;29;20053;-66
2022/03/30 08:11:30;;;;;;;6.53;2.97;;;7.40;99.90;;;;;;4848370;29;20065;-67
2022/03/30 08:13:56;;;;;;;20.20;7.20;;;7.30;99.90;;;;;;4847760;29;20105;-66
2022/03/30 08:16:22;;;;;;;7.03;3.30;;;7.20;99.90;;;;;;4847474;29;20551;-67
2022/03/30 08:18:48;;;;;;;3.55;2.65;;;7.20;99.90;;;;;;4863480;29;20053;-67
2022/03/30 08:23:58;;;;;;;14.63;3.88;;;7.30;99.90;;;;;;4847250;29;20507;-66
2022/03/30 08:26:24;;;;;;;4.68;2.85;;;7.30;99.90;;;;;;4862929;29;20049;-66
2022/03/30 08:28:49;;;;;;;6.45;3.40;;;7.40;99.90;;;;;;4846661;29;20494;-67
2022/03/30 08:31:15;;;;;;;6.13;4.85;;;7.50;99.90;;;;;;4846543;29;20053;-66
2022/03/30 08:33:41;;;;;;;6.82;5.03;;;7.60;99.90;;;;;;4847132;29;20084;-67
2022/03/30 08:36:07;;;;;;;5.55;4.25;;;7.60;99.90;;;;;;4854224;29;20069;-66
2022/03/30 08:38:33;;;;;;;5.53;4.60;;;7.70;99.90;;;;;;4845887;29;20054;-67
2022/03/30 08:40:59;;;;;;;6.40;3.60;;;7.90;99.90;;;;;;4846900;29;20526;-68
2022/03/30 08:43:29;;;;;;;5.90;3.45;;;7.90;99.90;;;;;;4862576;29;20058;-66
2022/03/30 08:45:57;;;;;;;4.50;3.42;;;8.00;99.90;;;;;;4847137;29;20073;-67
2022/03/30 08:48:23;;;;;;;6.20;3.75;;;8.00;99.90;;;;;;4846587;29;20128;-68
2022/03/30 08:50:50;;;;;;;4.93;2.97;;;8.10;99.90;;;;;;4857894;29;20149;-67
2022/03/30 08:53:18;;;;;;;3.28;2.78;;;8.10;99.90;;;;;;4863418;29;20080;-67
2022/03/30 08:55:44;;;;;;;7.40;3.05;;;8.20;99.90;;;;;;4862962;29;20057;-66
2022/03/30 08:58:09;;;;;;;14.32;3.72;;;8.20;99.90;;;;;;4863079;29;20060;-67
2022/03/30 09:00:35;;;;;;;29.45;5.22;;;8.10;99.90;;;;;;4863363;29;20495;-67
2022/03/30 09:03:03;;;;;;;8.23;2.38;;;8.20;99.90;;;;;;4845932;29;20406;-67
2022/03/30 09:05:34;;;;;;;2.92;2.17;;;8.00;99.90;;;;;;4846523;29;20056;-66
2022/03/30 09:08:12;;;;;;;4.60;2.50;;;8.10;99.90;;;;;;4861502;29;20061;-67
2022/03/30 09:10:39;;;;;;;4.40;2.30;;;8.00;99.90;;;;;;4862941;29;20141;-66
2022/03/30 09:13:05;;;;;;;5.57;2.85;;;8.20;99.90;;;;;;4846103;29;20088;-68
2022/03/30 09:15:33;;;;;;;6.85;3.22;;;8.20;99.90;;;;;;4862115;29;20082;-69
2022/03/30 09:18:00;;;;;;;4.75;2.90;;;8.30;99.90;;;;;;4845524;29;20045;-66
2022/03/30 09:20:26;;;;;;;3.35;3.05;;;8.30;99.90;;;;;;4862702;29;20387;-68
2022/03/30 09:22:56;;;;;;;4.22;2.95;;;8.40;99.90;;;;;;4846509;29;20418;-67
2022/03/30 09:25:27;;;;;;;3.55;2.60;;;8.40;99.90;;;;;;4850961;29;20092;-67
2022/03/30 09:27:55;;;;;;;4.95;3.35;;;8.60;99.90;;;;;;4848971;29;20132;-65
2022/03/30 09:30:21;;;;;;;3.50;3.08;;;8.70;99.90;;;;;;4863462;29;20050;-65
2022/03/30 09:32:49;;;;;;;4.57;2.72;;;8.80;99.90;;;;;;4861610;29;20061;-65
2022/03/30 09:35:25;;;;;;;5.75;2.67;;;8.80;99.90;;;;;;4861767;29;20414;-65
2022/03/30 09:38:08;;;;;;;2.28;1.88;;;9.00;99.90;;;;;;4852980;29;20439;-66
2022/03/30 09:41:04;;;;;;;5.68;2.20;;;9.00;99.90;;;;;;4861287;29;20132;-67
2022/03/30 09:43:34;;;;;;;4.28;1.42;;;8.90;99.90;;;;;;4861775;29;20113;-67
2022/03/30 09:46:05;;;;;;;2.95;1.40;;;9.00;99.90;;;;;;4846289;29;20061;-66
2022/03/30 09:48:33;;;;;;;3.37;0.93;;;9.00;99.90;;;;;;4845999;29;20065;-67
2022/03/30 09:51:00;;;;;;;4.15;1.42;;;9.00;99.90;;;;;;4845363;29;20057;-66
2022/03/30 09:53:28;;;;;;;3.40;1.30;;;8.90;99.90;;;;;;4844777;29;20125;-66
2022/03/30 09:56:16;;;;;;;3.35;1.23;;;8.90;99.90;;;;;;4862465;29;20178;-68
2022/03/30 09:58:43;;;;;;;3.97;1.67;;;8.80;99.90;;;;;;4840962;29;20061;-67
2022/03/30 10:01:13;;;;;;;3.85;1.23;;;8.70;99.90;;;;;;4862349;29;20064;-66
2022/03/30 10:03:54;;;;;;;2.47;1.42;;;8.60;99.90;;;;;;4845299;29;20108;-66
2022/03/30 10:06:22;;;;;;;3.75;1.40;;;8.60;99.90;;;;;;4842134;29;20068;-66
2022/03/30 10:08:50;;;;;;;4.00;1.60;;;8.60;99.90;;;;;;4861706;29;20057;-65
2022/03/30 10:11:17;;;;;;;5.03;1.50;;;8.60;99.90;;;;;;4862425;29;20495;-66
2022/03/30 10:13:46;;;;;;;2.78;1.55;;;8.60;99.90;;;;;;4844358;29;20062;-65
2022/03/30 10:16:13;;;;;;;3.72;1.55;;;8.60;99.90;;;;;;4845282;29;20076;-68
2022/03/30 10:18:39;;;;;;;4.45;1.77;;;8.70;99.90;;;;;;4844204;29;20053;-67
2022/03/30 10:21:16;;;;;;;3.17;1.30;;;8.90;99.90;;;;;;4860932;29;20404;-67
2022/03/30 10:24:01;;;;;;;4.88;1.27;;;8.90;99.90;;;;;;4845223;29;20136;-66
2022/03/30 10:26:45;;;;;;;8.00;1.58;;;8.90;99.90;;;;;;4844965;29;20495;-66
2022/03/30 10:29:12;;;;;;;17.05;2.55;;;9.10;99.90;;;;;;4845937;29;20065;-66
2022/03/30 10:31:38;;;;;;;1.52;0.90;;;9.20;99.90;;;;;;4861341;29;20064;-67
2022/03/30 10:34:26;;;;;;;2.83;1.20;;;9.20;99.90;;;;;;4862089;29;20049;-67
2022/03/30 10:37:00;;;;;;;3.33;1.55;;;9.40;99.90;;;;;;4861850;29;20418;-67
2022/03/30 10:39:27;;;;;;;3.25;1.33;;;9.40;99.90;;;;;;4845194;29;20064;-67
2022/03/30 10:42:08;;;;;;;6.70;1.50;;;9.40;99.90;;;;;;4844626;29;20068;-66
2022/03/30 10:44:42;;;;;;;2.83;1.17;;;9.40;99.90;;;;;;4859089;29;20340;-66
2022/03/30 10:47:09;;;;;;;4.25;1.42;;;9.50;99.90;;;;;;4859511;29;20068;-66
2022/03/30 10:49:44;;;;;;;4.78;1.67;;;9.50;99.90;;;;;;4853027;29;20383;-67
2022/03/30 10:52:38;;;;;;;3.90;1.50;;;9.50;99.90;;;;;;4863174;29;20182;-67
2022/03/30 10:55:13;;;;;;;1.80;1.40;;;9.50;99.90;;;;;;4862922;29;20084;-66
2022/03/30 10:57:44;;;;;;;3.30;1.50;;;9.60;99.90;;;;;;4862803;29;20068;-67
2022/03/30 11:00:36;;;;;;;3.63;1.40;;;9.70;99.90;;;;;;4855273;29;20088;-67
2022/03/30 11:03:25;;;;;;;4.05;1.40;;;9.80;99.90;;;;;;4848828;29;20342;-67
2022/03/30 11:06:05;;;;;;;3.47;1.52;;;9.80;99.90;;;;;;4860080;29;20061;-66
2022/03/30 11:08:34;;;;;;;3.35;1.38;;;9.80;99.90;;;;;;4844709;29;20107;-67
2022/03/30 11:11:24;;;;;;;2.60;1.20;;;9.70;99.90;;;;;;4860329;29;20065;-68
2022/03/30 11:14:28;;;;;;;1.50;1.20;;;9.50;99.90;;;;;;4841314;29;20064;-66
2022/03/30 11:16:56;;;;;;;6.32;1.50;;;9.30;99.90;;;;;;4853316;29;20068;-65
2022/03/30 11:19:28;;;;;;;2.55;1.35;;;9.30;99.90;;;;;;4860423;29;20134;-64
2022/03/30 11:22:09;;;;;;;4.78;1.20;;;9.10;99.90;;;;;;4841750;29;20060;-66
2022/03/30 11:24:35;;;;;;;1.42;1.00;;;9.20;99.90;;;;;;4844841;29;20391;-65
2022/03/30 11:27:01;;;;;;;2.17;1.40;;;9.20;99.90;;;;;;4843407;29;20058;-65
2022/03/30 11:29:52;;;;;;;2.35;1.30;;;9.30;99.90;;;;;;4844031;29;20057;-65
2022/03/30 11:32:24;;;;;;;2.97;1.10;;;9.40;99.90;;;;;;4860286;29;20407;-66
2022/03/30 11:34:54;;;;;;;3.70;1.27;;;9.50;99.90;;;;;;4843715;29;20128;-65
2022/03/30 11:37:42;;;;;;;2.90;1.10;;;9.50;99.90;;;;;;4843280;29;20101;-66
2022/03/30 11:40:16;;;;;;;1.55;1.00;;;9.60;99.90;;;;;;4841668;29;20186;-67
2022/03/30 11:42:48;;;;;;;5.00;1.38;;;9.60;99.90;;;;;;4860405;29;20501;-67
2022/03/30 11:45:18;;;;;;;1.40;1.00;;;9.60;99.90;;;;;;4828865;29;20049;-67
2022/03/30 11:47:48;;;;;;;2.00;1.50;;;9.60;99.90;;;;;;4860443;29;20423;-67
2022/03/30 11:50:17;;;;;;;4.47;1.35;;;9.60;99.90;;;;;;4844763;29;20120;-67
2022/03/30 11:52:53;;;;;;;3.03;1.38;;;9.60;99.90;;;;;;4843610;29;20053;-66
2022/03/30 11:55:18;;;;;;;3.33;1.55;;;9.50;99.90;;;;;;4860625;29;20061;-66
2022/03/30 11:57:44;;;;;;;1.88;1.10;;;9.40;99.90;;;;;;4843598;29;20081;-65
2022/03/30 12:00:11;;;;;;;1.52;1.35;;;9.50;99.90;;;;;;4843878;29;20054;-66
2022/03/30 12:02:40;;;;;;;2.33;1.30;;;9.50;99.90;;;;;;4860056;29;20161;-67
2022/03/30 12:05:07;;;;;;;2.00;1.33;;;9.70;99.90;;;;;;4843792;29;20053;-67
2022/03/30 12:07:35;;;;;;;2.80;1.48;;;9.80;99.90;;;;;;4859788;29;20518;-67
2022/03/30 12:10:03;;;;;;;3.47;1.30;;;9.80;99.90;;;;;;4843428;29;20116;-66
2022/03/30 12:12:35;;;;;;;3.17;1.40;;;9.70;99.90;;;;;;4843353;29;20054;-67
2022/03/30 12:15:09;;;;;;;2.67;1.10;;;9.80;99.90;;;;;;4843974;29;20059;-66
2022/03/30 12:17:35;;;;;;;3.13;1.25;;;9.40;96.30;;;;;;4843070;29;20050;-68
2022/03/30 12:20:05;;;;;;;2.08;1.27;;;9.70;99.90;;;;;;4843666;29;20054;-66
2022/03/30 12:22:31;;;;;;;3.67;1.40;;;9.60;99.90;;;;;;4852831;29;20074;-63
2022/03/30 12:24:57;;;;;;;3.03;1.40;;;9.50;99.90;;;;;;4840865;29;20062;-65
2022/03/30 12:27:24;;;;;;;2.22;1.10;;;9.40;99.90;;;;;;4841115;29;20058;-65
2022/03/30 12:29:56;;;;;;;1.63;1.10;;;9.40;99.90;;;;;;4825217;29;20049;-66
2022/03/30 12:32:26;;;;;;;4.43;1.20;;;9.40;99.90;;;;;;4842884;29;20072;-66
2022/03/30 12:35:12;;;;;;;1.45;1.00;;;9.40;99.90;;;;;;4843889;29;20471;-66
2022/03/30 12:37:38;;;;;;;3.17;1.00;;;9.30;99.90;;;;;;4860021;29;20079;-65
2022/03/30 12:40:10;;;;;;;5.38;1.30;;;9.30;99.90;;;;;;4843705;29;20109;-66
2022/03/30 12:42:36;;;;;;;4.18;1.13;;;9.20;99.90;;;;;;4858176;29;20188;-65
2022/03/30 12:45:05;;;;;;;1.33;1.08;;;9.20;99.90;;;;;;4860601;29;20177;-65
2022/03/30 12:47:54;;;;;;;2.88;1.38;;;9.20;99.90;;;;;;4843838;29;20053;-64
2022/03/30 12:50:35;;;;;;;2.17;1.23;;;9.10;99.90;;;;;;4861296;29;20056;-66
2022/03/30 12:53:18;;;;;;;4.40;1.95;;;9.00;99.40;;;;;;4844713;29;20139;-66
2022/03/30 12:55:45;;;;;;;;;;;9.00;99.90;;;;;;4845789;29;20145;-64
2022/03/30 12:58:16;;;;;;;2.53;1.10;;;9.00;99.90;;;;;;4846400;29;20032;-66
2022/03/30 13:00:44;;;;;;;2.10;1.20;;;9.10;99.90;;;;;;4863405;29;20050;-65